Upper Denton, United Kingdom

6:18 AM BST on May 26, 2017 (GMT +0100)
South Tynedale | | Change Station

Elev 610 ft 54.92 °N, 2.51 °W | Updated 4 seconds ago

Clear
Clear
59.5 °F
Feels Like 59.5 °F
N
0.0
Wind Variable Wind from NW
Gusts 0.0 mph

Today
High -- | Low -- °F
--% Chance of Precip.
Yesterday
High -- | Low -- °F
Precip. -- in
Pressure 30.09 in
Visibility 1.7 miles
Clouds
Dew Point 59 °F
Humidity 97%
Rainfall 0.00 in
Snow Depth Not available.
4:45 AM 9:30 PM
New Moon, 0% visible
METAR EGOM 260450Z AUTO 03006KT 2800 BR NCD 13/13 Q1019
Pressure 30.09 in
Visibility 1.7 miles
Clouds
Dew Point 59 °F
Humidity 97%
Rainfall 0.00 in
Snow Depth Not available.
4:45 AM 9:30 PM
New Moon, 0% visible
METAR EGOM 260450Z AUTO 03006KT 2800 BR NCD 13/13 Q1019

Get Severe Weather Alerts

Thanks for signing up!

Be on the lookout for a verification email in your inbox.

You'll start receiving the daily forecast at 6 AM.

×

10-Day Weather Forecast

×

Almanac

Astronomy

May. 26, 2017 Rise Set
Actual Time
Civil Twilight
Nautical Twilight
Astronomical Twilight
Moon
Length of Visible Light
Length of Day
Tomorrow will be .
, % of the Moon is Illuminated

Today's Extremes

Country Highs Country Lows

Community

WunderPhotos

Category 6

Welcome to Category 6. This is the collective home for Weather Underground's featured writeups by Dr. Jeff Masters (right), Bob Henson (left), Chris Burt, and other regular contributors.

Nearby

Air Quality

  Air Quality AQ Index Pollutant
Not available.

Snow Depth

Station Depth Elevation

Earthquake Activity

City Distance Mag. Time & Date
Minimum magnitude displayed is 2.5.

Coastal Water Temperatures

Place Temperature

Stations

Nearby Weather Stations

Station Location Temp. Windchill Dew Point Humidity Wind Precip. Elev Updated Type